sensor_id;sensor_type;location;lat;lon;timestamp;P1;durP1;ratioP1;P2;durP2;ratioP2
6185;SDS011;3126;52.738;8.316;2023-01-10T00:05:00;19.50;;;8.15;;
6185;SDS011;3126;52.738;8.316;2023-01-10T00:10:01;11.43;;;6.53;;
6185;SDS011;3126;52.738;8.316;2023-01-10T00:15:02;12.98;;;5.88;;
6185;SDS011;3126;52.738;8.316;2023-01-10T00:20:03;12.68;;;6.60;;
6185;SDS011;3126;52.738;8.316;2023-01-10T00:25:04;11.13;;;4.82;;
6185;SDS011;3126;52.738;8.316;2023-01-10T00:30:05;12.02;;;4.90;;
6185;SDS011;3126;52.738;8.316;2023-01-10T00:35:13;7.85;;;4.30;;
6185;SDS011;3126;52.738;8.316;2023-01-10T00:40:14;13.82;;;4.88;;
6185;SDS011;3126;52.738;8.316;2023-01-10T00:45:15;7.10;;;4.15;;
6185;SDS011;3126;52.738;8.316;2023-01-10T00:50:18;7.32;;;3.95;;
6185;SDS011;3126;52.738;8.316;2023-01-10T00:55:19;8.73;;;4.47;;
6185;SDS011;3126;52.738;8.316;2023-01-10T01:00:20;5.18;;;3.45;;
6185;SDS011;3126;52.738;8.316;2023-01-10T01:05:21;6.50;;;3.33;;
6185;SDS011;3126;52.738;8.316;2023-01-10T01:10:22;6.20;;;3.72;;
6185;SDS011;3126;52.738;8.316;2023-01-10T01:15:26;7.70;;;3.25;;
6185;SDS011;3126;52.738;8.316;2023-01-10T01:20:27;8.05;;;3.30;;
6185;SDS011;3126;52.738;8.316;2023-01-10T01:25:29;9.68;;;4.32;;
6185;SDS011;3126;52.738;8.316;2023-01-10T01:30:30;10.23;;;3.20;;
6185;SDS011;3126;52.738;8.316;2023-01-10T01:35:31;4.68;;;2.50;;
6185;SDS011;3126;52.738;8.316;2023-01-10T01:40:32;6.45;;;3.15;;
6185;SDS011;3126;52.738;8.316;2023-01-10T01:45:35;5.45;;;3.35;;
6185;SDS011;3126;52.738;8.316;2023-01-10T01:50:45;4.85;;;2.50;;
6185;SDS011;3126;52.738;8.316;2023-01-10T01:55:48;7.47;;;2.63;;
6185;SDS011;3126;52.738;8.316;2023-01-10T02:00:50;7.07;;;3.08;;
6185;SDS011;3126;52.738;8.316;2023-01-10T02:05:51;4.13;;;2.42;;
6185;SDS011;3126;52.738;8.316;2023-01-10T02:11:06;7.68;;;2.90;;
6185;SDS011;3126;52.738;8.316;2023-01-10T02:16:08;9.13;;;2.92;;
6185;SDS011;3126;52.738;8.316;2023-01-10T02:36:59;7.72;;;3.50;;
6185;SDS011;3126;52.738;8.316;2023-01-10T02:42:07;13.07;;;3.42;;
6185;SDS011;3126;52.738;8.316;2023-01-10T02:47:08;14.35;;;3.45;;
6185;SDS011;3126;52.738;8.316;2023-01-10T02:52:10;10.93;;;3.60;;
6185;SDS011;3126;52.738;8.316;2023-01-10T03:17:59;6.80;;;2.83;;
6185;SDS011;3126;52.738;8.316;2023-01-10T03:23:01;10.85;;;3.55;;
6185;SDS011;3126;52.738;8.316;2023-01-10T03:28:06;11.02;;;4.72;;
6185;SDS011;3126;52.738;8.316;2023-01-10T03:33:10;11.23;;;4.72;;
6185;SDS011;3126;52.738;8.316;2023-01-10T03:38:17;8.70;;;3.35;;
6185;SDS011;3126;52.738;8.316;2023-01-10T03:43:22;8.20;;;3.05;;
6185;SDS011;3126;52.738;8.316;2023-01-10T03:48:44;12.98;;;3.42;;
6185;SDS011;3126;52.738;8.316;2023-01-10T03:53:46;9.60;;;3.38;;
6185;SDS011;3126;52.738;8.316;2023-01-10T03:58:47;8.00;;;3.88;;
6185;SDS011;3126;52.738;8.316;2023-01-10T04:03:48;9.63;;;3.65;;
6185;SDS011;3126;52.738;8.316;2023-01-10T04:08:49;11.25;;;3.03;;
6185;SDS011;3126;52.738;8.316;2023-01-10T04:13:50;9.23;;;2.85;;
6185;SDS011;3126;52.738;8.316;2023-01-10T04:18:51;8.32;;;3.58;;
6185;SDS011;3126;52.738;8.316;2023-01-10T04:23:52;8.65;;;3.05;;
6185;SDS011;3126;52.738;8.316;2023-01-10T04:28:53;12.55;;;3.25;;
6185;SDS011;3126;52.738;8.316;2023-01-10T04:33:54;9.57;;;3.08;;
6185;SDS011;3126;52.738;8.316;2023-01-10T04:38:55;11.80;;;3.13;;
6185;SDS011;3126;52.738;8.316;2023-01-10T04:43:56;10.75;;;3.33;;
6185;SDS011;3126;52.738;8.316;2023-01-10T04:48:57;11.75;;;2.78;;
6185;SDS011;3126;52.738;8.316;2023-01-10T04:53:58;5.88;;;3.40;;
6185;SDS011;3126;52.738;8.316;2023-01-10T04:58:59;7.80;;;2.78;;
6185;SDS011;3126;52.738;8.316;2023-01-10T05:04:00;9.18;;;3.80;;
6185;SDS011;3126;52.738;8.316;2023-01-10T05:09:02;11.80;;;3.53;;
6185;SDS011;3126;52.738;8.316;2023-01-10T05:14:03;10.57;;;2.90;;
6185;SDS011;3126;52.738;8.316;2023-01-10T05:19:04;12.23;;;2.97;;
6185;SDS011;3126;52.738;8.316;2023-01-10T05:24:05;12.95;;;2.88;;
6185;SDS011;3126;52.738;8.316;2023-01-10T05:29:08;10.80;;;3.25;;
6185;SDS011;3126;52.738;8.316;2023-01-10T05:34:12;18.60;;;3.10;;
6185;SDS011;3126;52.738;8.316;2023-01-10T05:39:13;6.72;;;2.42;;
6185;SDS011;3126;52.738;8.316;2023-01-10T05:44:14;7.97;;;3.30;;
6185;SDS011;3126;52.738;8.316;2023-01-10T05:49:15;11.85;;;3.90;;
6185;SDS011;3126;52.738;8.316;2023-01-10T05:54:16;12.55;;;4.75;;
6185;SDS011;3126;52.738;8.316;2023-01-10T05:59:17;10.82;;;4.32;;
6185;SDS011;3126;52.738;8.316;2023-01-10T06:04:18;8.35;;;3.88;;
6185;SDS011;3126;52.738;8.316;2023-01-10T06:09:19;12.45;;;3.80;;
6185;SDS011;3126;52.738;8.316;2023-01-10T06:14:20;13.13;;;3.45;;
6185;SDS011;3126;52.738;8.316;2023-01-10T06:19:21;9.73;;;4.18;;
6185;SDS011;3126;52.738;8.316;2023-01-10T06:24:22;10.45;;;4.25;;
6185;SDS011;3126;52.738;8.316;2023-01-10T06:29:24;16.48;;;5.47;;
6185;SDS011;3126;52.738;8.316;2023-01-10T06:34:25;21.23;;;5.53;;
6185;SDS011;3126;52.738;8.316;2023-01-10T06:39:26;14.20;;;5.43;;
6185;SDS011;3126;52.738;8.316;2023-01-10T06:44:27;11.82;;;4.72;;
6185;SDS011;3126;52.738;8.316;2023-01-10T06:49:28;14.30;;;5.03;;
6185;SDS011;3126;52.738;8.316;2023-01-10T06:54:29;11.77;;;4.60;;
6185;SDS011;3126;52.738;8.316;2023-01-10T06:59:30;11.90;;;4.18;;
6185;SDS011;3126;52.738;8.316;2023-01-10T07:04:31;10.30;;;3.78;;
6185;SDS011;3126;52.738;8.316;2023-01-10T07:09:32;9.52;;;3.45;;
6185;SDS011;3126;52.738;8.316;2023-01-10T07:14:33;14.35;;;3.80;;
6185;SDS011;3126;52.738;8.316;2023-01-10T07:19:34;15.77;;;4.30;;
6185;SDS011;3126;52.738;8.316;2023-01-10T07:24:35;17.10;;;5.78;;
6185;SDS011;3126;52.738;8.316;2023-01-10T07:29:36;15.88;;;4.68;;
6185;SDS011;3126;52.738;8.316;2023-01-10T07:34:37;13.18;;;4.85;;
6185;SDS011;3126;52.738;8.316;2023-01-10T07:39:38;15.73;;;4.53;;
6185;SDS011;3126;52.738;8.316;2023-01-10T07:44:41;13.30;;;3.83;;
6185;SDS011;3126;52.738;8.316;2023-01-10T07:49:42;15.27;;;4.90;;
6185;SDS011;3126;52.738;8.316;2023-01-10T07:54:43;19.48;;;5.32;;
6185;SDS011;3126;52.738;8.316;2023-01-10T07:59:44;10.43;;;4.97;;
6185;SDS011;3126;52.738;8.316;2023-01-10T08:04:45;20.67;;;5.68;;
6185;SDS011;3126;52.738;8.316;2023-01-10T08:09:46;13.27;;;5.72;;
6185;SDS011;3126;52.738;8.316;2023-01-10T08:14:47;19.63;;;6.50;;
6185;SDS011;3126;52.738;8.316;2023-01-10T08:19:48;8.68;;;4.78;;
6185;SDS011;3126;52.738;8.316;2023-01-10T08:24:49;11.77;;;5.35;;
6185;SDS011;3126;52.738;8.316;2023-01-10T08:29:50;16.60;;;6.05;;
6185;SDS011;3126;52.738;8.316;2023-01-10T08:34:51;15.02;;;6.78;;
6185;SDS011;3126;52.738;8.316;2023-01-10T08:39:52;15.90;;;6.20;;
6185;SDS011;3126;52.738;8.316;2023-01-10T08:44:53;14.93;;;5.68;;
6185;SDS011;3126;52.738;8.316;2023-01-10T08:49:54;17.40;;;6.43;;
6185;SDS011;3126;52.738;8.316;2023-01-10T08:54:55;12.15;;;6.78;;
6185;SDS011;3126;52.738;8.316;2023-01-10T08:59:56;14.07;;;6.90;;
6185;SDS011;3126;52.738;8.316;2023-01-10T09:04:57;19.70;;;7.05;;
6185;SDS011;3126;52.738;8.316;2023-01-10T09:09:58;15.93;;;6.75;;
6185;SDS011;3126;52.738;8.316;2023-01-10T09:14:59;13.80;;;7.07;;
6185;SDS011;3126;52.738;8.316;2023-01-10T09:20:00;11.50;;;6.85;;
6185;SDS011;3126;52.738;8.316;2023-01-10T09:25:05;16.05;;;7.60;;
6185;SDS011;3126;52.738;8.316;2023-01-10T09:30:06;19.65;;;7.80;;
6185;SDS011;3126;52.738;8.316;2023-01-10T09:35:08;15.30;;;7.03;;
6185;SDS011;3126;52.738;8.316;2023-01-10T09:40:12;17.98;;;7.30;;
6185;SDS011;3126;52.738;8.316;2023-01-10T09:45:20;17.90;;;7.70;;
6185;SDS011;3126;52.738;8.316;2023-01-10T09:50:34;16.67;;;8.02;;
6185;SDS011;3126;52.738;8.316;2023-01-10T09:55:37;13.23;;;6.18;;
6185;SDS011;3126;52.738;8.316;2023-01-10T10:00:43;16.90;;;8.18;;
6185;SDS011;3126;52.738;8.316;2023-01-10T10:05:45;13.07;;;6.95;;
6185;SDS011;3126;52.738;8.316;2023-01-10T10:10:52;18.10;;;7.90;;
6185;SDS011;3126;52.738;8.316;2023-01-10T10:21:07;17.17;;;7.10;;
6185;SDS011;3126;52.738;8.316;2023-01-10T10:41:29;14.20;;;5.93;;
6185;SDS011;3126;52.738;8.316;2023-01-10T10:46:32;14.98;;;6.15;;
6185;SDS011;3126;52.738;8.316;2023-01-10T10:51:37;22.83;;;6.80;;
6185;SDS011;3126;52.738;8.316;2023-01-10T10:56:39;12.38;;;5.30;;
6185;SDS011;3126;52.738;8.316;2023-01-10T11:01:40;13.65;;;5.72;;
6185;SDS011;3126;52.738;8.316;2023-01-10T11:06:45;20.15;;;7.85;;
6185;SDS011;3126;52.738;8.316;2023-01-10T11:11:49;16.45;;;7.88;;
6185;SDS011;3126;52.738;8.316;2023-01-10T11:16:51;23.17;;;8.07;;
6185;SDS011;3126;52.738;8.316;2023-01-10T11:21:53;14.73;;;6.82;;
6185;SDS011;3126;52.738;8.316;2023-01-10T11:26:55;19.48;;;8.27;;
6185;SDS011;3126;52.738;8.316;2023-01-10T11:31:57;22.33;;;8.38;;
6185;SDS011;3126;52.738;8.316;2023-01-10T11:37:00;18.60;;;8.48;;
6185;SDS011;3126;52.738;8.316;2023-01-10T11:42:23;16.25;;;7.18;;
6185;SDS011;3126;52.738;8.316;2023-01-10T11:47:28;17.13;;;8.23;;
6185;SDS011;3126;52.738;8.316;2023-01-10T11:52:29;15.77;;;6.63;;
6185;SDS011;3126;52.738;8.316;2023-01-10T11:57:30;14.02;;;7.72;;
6185;SDS011;3126;52.738;8.316;2023-01-10T12:02:42;12.60;;;6.35;;
6185;SDS011;3126;52.738;8.316;2023-01-10T12:07:56;13.60;;;6.10;;
6185;SDS011;3126;52.738;8.316;2023-01-10T12:12:58;17.73;;;5.40;;
6185;SDS011;3126;52.738;8.316;2023-01-10T12:18:00;18.60;;;6.10;;
6185;SDS011;3126;52.738;8.316;2023-01-10T12:23:05;13.50;;;6.70;;
6185;SDS011;3126;52.738;8.316;2023-01-10T12:28:26;13.77;;;5.55;;
6185;SDS011;3126;52.738;8.316;2023-01-10T12:33:31;18.17;;;5.45;;
6185;SDS011;3126;52.738;8.316;2023-01-10T12:38:44;15.07;;;6.97;;
6185;SDS011;3126;52.738;8.316;2023-01-10T12:44:11;14.52;;;5.97;;
6185;SDS011;3126;52.738;8.316;2023-01-10T12:49:21;15.95;;;5.97;;
6185;SDS011;3126;52.738;8.316;2023-01-10T12:54:24;13.15;;;5.07;;
6185;SDS011;3126;52.738;8.316;2023-01-10T12:59:38;11.63;;;6.00;;
6185;SDS011;3126;52.738;8.316;2023-01-10T13:04:39;12.20;;;5.18;;
6185;SDS011;3126;52.738;8.316;2023-01-10T13:09:42;17.98;;;5.38;;
6185;SDS011;3126;52.738;8.316;2023-01-10T13:14:58;16.55;;;5.10;;
6185;SDS011;3126;52.738;8.316;2023-01-10T13:25:28;16.90;;;5.10;;
6185;SDS011;3126;52.738;8.316;2023-01-10T13:30:36;13.85;;;5.93;;
6185;SDS011;3126;52.738;8.316;2023-01-10T13:35:40;18.08;;;5.60;;
6185;SDS011;3126;52.738;8.316;2023-01-10T13:40:51;11.48;;;5.80;;
6185;SDS011;3126;52.738;8.316;2023-01-10T13:46:55;15.48;;;5.70;;
6185;SDS011;3126;52.738;8.316;2023-01-10T13:51:26;13.77;;;5.22;;
6185;SDS011;3126;52.738;8.316;2023-01-10T13:56:28;10.75;;;4.78;;
6185;SDS011;3126;52.738;8.316;2023-01-10T14:01:34;15.30;;;5.00;;
6185;SDS011;3126;52.738;8.316;2023-01-10T14:06:58;22.88;;;6.15;;
6185;SDS011;3126;52.738;8.316;2023-01-10T14:12:01;13.35;;;5.32;;
6185;SDS011;3126;52.738;8.316;2023-01-10T14:22:23;14.35;;;6.88;;
6185;SDS011;3126;52.738;8.316;2023-01-10T14:27:26;16.15;;;6.65;;
6185;SDS011;3126;52.738;8.316;2023-01-10T14:32:32;21.13;;;7.32;;
6185;SDS011;3126;52.738;8.316;2023-01-10T14:37:44;19.45;;;5.97;;
6185;SDS011;3126;52.738;8.316;2023-01-10T14:42:46;20.98;;;6.20;;
6185;SDS011;3126;52.738;8.316;2023-01-10T14:47:48;12.20;;;6.00;;
6185;SDS011;3126;52.738;8.316;2023-01-10T14:52:49;13.27;;;6.95;;
6185;SDS011;3126;52.738;8.316;2023-01-10T15:02:54;10.88;;;5.43;;
6185;SDS011;3126;52.738;8.316;2023-01-10T15:13:18;20.13;;;5.63;;
6185;SDS011;3126;52.738;8.316;2023-01-10T15:18:26;13.85;;;5.72;;
6185;SDS011;3126;52.738;8.316;2023-01-10T15:23:32;22.55;;;5.22;;
6185;SDS011;3126;52.738;8.316;2023-01-10T15:28:34;11.27;;;5.93;;
6185;SDS011;3126;52.738;8.316;2023-01-10T15:33:35;19.67;;;5.40;;
6185;SDS011;3126;52.738;8.316;2023-01-10T15:38:37;13.43;;;4.97;;
6185;SDS011;3126;52.738;8.316;2023-01-10T15:43:41;14.30;;;5.15;;
6185;SDS011;3126;52.738;8.316;2023-01-10T15:48:51;18.55;;;5.25;;
6185;SDS011;3126;52.738;8.316;2023-01-10T15:58:56;20.13;;;6.68;;
6185;SDS011;3126;52.738;8.316;2023-01-10T16:04:00;14.68;;;3.95;;
6185;SDS011;3126;52.738;8.316;2023-01-10T16:09:03;13.75;;;4.50;;
6185;SDS011;3126;52.738;8.316;2023-01-10T16:14:05;15.10;;;4.93;;
6185;SDS011;3126;52.738;8.316;2023-01-10T16:19:06;15.98;;;5.63;;
6185;SDS011;3126;52.738;8.316;2023-01-10T16:24:11;17.13;;;4.35;;
6185;SDS011;3126;52.738;8.316;2023-01-10T16:29:13;13.57;;;3.40;;
6185;SDS011;3126;52.738;8.316;2023-01-10T16:34:14;17.50;;;4.07;;
6185;SDS011;3126;52.738;8.316;2023-01-10T16:39:16;15.95;;;3.90;;
6185;SDS011;3126;52.738;8.316;2023-01-10T16:44:18;16.60;;;4.28;;
6185;SDS011;3126;52.738;8.316;2023-01-10T16:49:19;17.75;;;4.05;;
6185;SDS011;3126;52.738;8.316;2023-01-10T16:54:21;21.23;;;4.28;;
6185;SDS011;3126;52.738;8.316;2023-01-10T16:59:24;17.13;;;3.65;;
6185;SDS011;3126;52.738;8.316;2023-01-10T17:04:26;19.33;;;3.42;;
6185;SDS011;3126;52.738;8.316;2023-01-10T17:09:29;12.57;;;3.38;;
6185;SDS011;3126;52.738;8.316;2023-01-10T17:14:31;11.93;;;3.50;;
6185;SDS011;3126;52.738;8.316;2023-01-10T17:19:33;12.50;;;3.35;;
6185;SDS011;3126;52.738;8.316;2023-01-10T17:24:36;11.00;;;2.80;;
6185;SDS011;3126;52.738;8.316;2023-01-10T17:29:37;9.43;;;3.08;;
6185;SDS011;3126;52.738;8.316;2023-01-10T17:34:38;14.40;;;3.45;;
6185;SDS011;3126;52.738;8.316;2023-01-10T17:39:39;7.32;;;2.63;;
6185;SDS011;3126;52.738;8.316;2023-01-10T17:44:40;15.77;;;3.20;;
6185;SDS011;3126;52.738;8.316;2023-01-10T17:49:41;13.18;;;2.70;;
6185;SDS011;3126;52.738;8.316;2023-01-10T17:54:42;9.27;;;2.70;;
6185;SDS011;3126;52.738;8.316;2023-01-10T17:59:43;9.13;;;2.70;;
6185;SDS011;3126;52.738;8.316;2023-01-10T18:04:44;8.93;;;3.00;;
6185;SDS011;3126;52.738;8.316;2023-01-10T18:09:45;13.73;;;3.03;;
6185;SDS011;3126;52.738;8.316;2023-01-10T18:14:46;13.68;;;2.38;;
6185;SDS011;3126;52.738;8.316;2023-01-10T18:19:48;10.38;;;3.08;;
6185;SDS011;3126;52.738;8.316;2023-01-10T18:24:52;12.05;;;3.33;;
6185;SDS011;3126;52.738;8.316;2023-01-10T18:29:54;9.07;;;2.58;;
6185;SDS011;3126;52.738;8.316;2023-01-10T18:34:55;7.97;;;2.30;;
6185;SDS011;3126;52.738;8.316;2023-01-10T18:39:56;8.95;;;2.20;;
6185;SDS011;3126;52.738;8.316;2023-01-10T18:44:57;17.17;;;2.95;;
6185;SDS011;3126;52.738;8.316;2023-01-10T18:49:58;11.73;;;3.53;;
6185;SDS011;3126;52.738;8.316;2023-01-10T18:54:59;6.47;;;2.60;;
6185;SDS011;3126;52.738;8.316;2023-01-10T19:00:00;11.00;;;2.92;;
6185;SDS011;3126;52.738;8.316;2023-01-10T19:05:01;9.48;;;3.17;;
6185;SDS011;3126;52.738;8.316;2023-01-10T19:10:08;8.93;;;2.83;;
6185;SDS011;3126;52.738;8.316;2023-01-10T19:15:10;8.63;;;3.22;;
6185;SDS011;3126;52.738;8.316;2023-01-10T19:20:11;12.02;;;3.47;;
6185;SDS011;3126;52.738;8.316;2023-01-10T19:25:12;8.35;;;3.10;;
6185;SDS011;3126;52.738;8.316;2023-01-10T19:30:13;5.13;;;2.90;;
6185;SDS011;3126;52.738;8.316;2023-01-10T19:35:14;9.80;;;3.22;;
6185;SDS011;3126;52.738;8.316;2023-01-10T19:40:15;8.57;;;3.03;;
6185;SDS011;3126;52.738;8.316;2023-01-10T19:45:16;10.77;;;2.13;;
6185;SDS011;3126;52.738;8.316;2023-01-10T19:50:17;10.27;;;2.90;;
6185;SDS011;3126;52.738;8.316;2023-01-10T19:55:18;10.90;;;2.83;;
6185;SDS011;3126;52.738;8.316;2023-01-10T20:00:20;13.02;;;3.28;;
6185;SDS011;3126;52.738;8.316;2023-01-10T20:05:21;13.32;;;3.25;;
6185;SDS011;3126;52.738;8.316;2023-01-10T20:10:22;9.38;;;2.83;;
6185;SDS011;3126;52.738;8.316;2023-01-10T20:15:23;6.47;;;2.97;;
6185;SDS011;3126;52.738;8.316;2023-01-10T20:20:24;10.30;;;3.00;;
6185;SDS011;3126;52.738;8.316;2023-01-10T20:25:25;10.05;;;3.35;;
6185;SDS011;3126;52.738;8.316;2023-01-10T20:30:26;5.07;;;2.25;;
6185;SDS011;3126;52.738;8.316;2023-01-10T20:35:27;10.50;;;2.42;;
6185;SDS011;3126;52.738;8.316;2023-01-10T20:40:28;10.70;;;3.08;;
6185;SDS011;3126;52.738;8.316;2023-01-10T20:45:29;6.50;;;3.03;;
6185;SDS011;3126;52.738;8.316;2023-01-10T20:50:30;6.25;;;2.25;;
6185;SDS011;3126;52.738;8.316;2023-01-10T20:55:33;7.88;;;2.22;;
6185;SDS011;3126;52.738;8.316;2023-01-10T21:00:34;4.25;;;2.30;;
6185;SDS011;3126;52.738;8.316;2023-01-10T21:05:35;6.00;;;3.10;;
6185;SDS011;3126;52.738;8.316;2023-01-10T21:10:37;8.27;;;3.33;;
6185;SDS011;3126;52.738;8.316;2023-01-10T21:15:42;8.70;;;2.85;;
6185;SDS011;3126;52.738;8.316;2023-01-10T21:20:44;11.10;;;2.83;;
6185;SDS011;3126;52.738;8.316;2023-01-10T21:25:46;4.30;;;1.92;;
6185;SDS011;3126;52.738;8.316;2023-01-10T21:30:47;4.22;;;2.45;;
6185;SDS011;3126;52.738;8.316;2023-01-10T21:35:52;2.80;;;1.92;;
6185;SDS011;3126;52.738;8.316;2023-01-10T21:40:54;5.55;;;2.58;;
6185;SDS011;3126;52.738;8.316;2023-01-10T21:45:57;5.50;;;2.33;;
6185;SDS011;3126;52.738;8.316;2023-01-10T21:50:58;4.93;;;2.78;;
6185;SDS011;3126;52.738;8.316;2023-01-10T21:55:59;3.45;;;2.20;;
6185;SDS011;3126;52.738;8.316;2023-01-10T22:01:00;5.00;;;2.10;;
6185;SDS011;3126;52.738;8.316;2023-01-10T22:06:01;6.18;;;2.28;;
6185;SDS011;3126;52.738;8.316;2023-01-10T22:11:02;2.53;;;2.33;;
6185;SDS011;3126;52.738;8.316;2023-01-10T22:16:03;5.45;;;2.60;;
6185;SDS011;3126;52.738;8.316;2023-01-10T22:21:04;3.42;;;1.83;;
6185;SDS011;3126;52.738;8.316;2023-01-10T22:26:06;3.38;;;1.85;;
6185;SDS011;3126;52.738;8.316;2023-01-10T22:31:07;5.25;;;2.35;;
6185;SDS011;3126;52.738;8.316;2023-01-10T22:36:11;2.85;;;1.88;;
6185;SDS011;3126;52.738;8.316;2023-01-10T22:46:13;2.03;;;1.92;;
6185;SDS011;3126;52.738;8.316;2023-01-10T22:51:15;2.45;;;1.75;;
6185;SDS011;3126;52.738;8.316;2023-01-10T22:56:16;5.40;;;2.17;;
6185;SDS011;3126;52.738;8.316;2023-01-10T23:01:18;3.22;;;2.10;;
6185;SDS011;3126;52.738;8.316;2023-01-10T23:06:19;2.88;;;2.28;;
6185;SDS011;3126;52.738;8.316;2023-01-10T23:11:20;2.90;;;2.47;;
6185;SDS011;3126;52.738;8.316;2023-01-10T23:16:23;2.33;;;2.15;;
6185;SDS011;3126;52.738;8.316;2023-01-10T23:21:31;3.80;;;2.60;;
6185;SDS011;3126;52.738;8.316;2023-01-10T23:26:32;2.85;;;2.65;;
6185;SDS011;3126;52.738;8.316;2023-01-10T23:31:33;4.10;;;3.70;;
6185;SDS011;3126;52.738;8.316;2023-01-10T23:36:34;5.30;;;3.22;;
6185;SDS011;3126;52.738;8.316;2023-01-10T23:41:35;3.55;;;3.20;;
6185;SDS011;3126;52.738;8.316;2023-01-10T23:46:36;3.97;;;3.15;;
6185;SDS011;3126;52.738;8.316;2023-01-10T23:51:37;4.50;;;3.38;;
6185;SDS011;3126;52.738;8.316;2023-01-10T23:56:38;5.60;;;2.85;;
